Thomastown, Minnesota
Current Conditions -  °F | °C
As of 7:13 AM on Thursday 30 Oct 2014 (Local Time) from KSAZ Reporting Station
Overcast Overcast  
Wind Chill: 36°   Ceiling: 4200
Heat Index: 36°   Visibility: 10mi
Dew Point: 34°   Wind: 3mph
Humidity: 93%   Direction: 360°N
Pressure: 30.05"   Gusts: NA
Location:  46.4671°N, 94.8901°W
Report Text: KSAZ 301213Z AUTO 36003KT 10SM OVC042 02/01 A3005 RMK AO2
Loading
Personal Weather Stations






























Interactive Weather Map
Tropical Storm Tracking
New forecast layout! Learn more

10-Day Weather Forecast

Advertisements
Track Severe Weather on mobile